Time;durP1;ratioP1;P1;durP2;ratioP2;P2;SDS_P1;SDS_P2;PMS_P1;PMS_P2;Temp;Humidity;BMP_temperature;BMP_pressure;BME280_temperature;BME280_humidity;BME280_pressure;Samples;Min_cycle;Max_cycle;Signal;HPM_P1;HPM_P2
2023/05/11 00:02:17;;;;;;;;;;;11.80;99.90;;;;;;5082563;28;20484;-78
2023/05/11 00:04:42;;;;;;;;;;;11.80;99.90;;;;;;5065203;28;19988;-78
2023/05/11 00:07:08;;;;;;;;;;;11.80;99.90;;;;;;5082071;28;19924;-78
2023/05/11 00:09:34;;;;;;;;;;;11.80;99.90;;;;;;5066432;28;19967;-78
2023/05/11 00:12:01;;;;;;;;;;;11.70;99.90;;;;;;5066755;28;20417;-78
2023/05/11 00:14:27;;;;;;;;;;;11.80;99.90;;;;;;5085924;28;20362;-78
2023/05/11 00:16:53;;;;;;;;;;;11.80;99.90;;;;;;5096533;28;19924;-78
2023/05/11 00:19:18;;;;;;;;;;;11.70;99.90;;;;;;5050026;28;19960;-78
2023/05/11 00:21:44;;;;;;;;;;;11.70;99.90;;;;;;5071312;28;19932;-78
2023/05/11 00:24:09;;;;;;;;;;;11.70;99.90;;;;;;5051686;28;19924;-77
2023/05/11 00:26:35;;;;;;;;;;;11.70;99.90;;;;;;5076769;28;19924;-78
2023/05/11 00:29:00;;;;;;;;;;;11.80;99.90;;;;;;5080539;28;19931;-77
2023/05/11 00:31:26;;;;;;;;;;;11.80;99.90;;;;;;5082899;28;19924;-78
2023/05/11 00:33:53;;;;;;;;;;;11.80;99.90;;;;;;5070778;28;19959;-78
2023/05/11 00:36:19;;;;;;;;;;;11.80;99.90;;;;;;5084109;28;19941;-77
2023/05/11 00:38:45;;;;;;;;;;;11.80;99.90;;;;;;5065215;28;19987;-78
2023/05/11 00:41:10;;;;;;;;;;;11.80;99.90;;;;;;5058196;28;19929;-78
2023/05/11 00:43:36;;;;;;;;;;;11.80;99.90;;;;;;5049314;28;19978;-77
2023/05/11 00:46:02;;;;;;;;;;;11.80;99.90;;;;;;5091873;28;20424;-78
2023/05/11 00:48:27;;;;;;;;;;;11.80;99.90;;;;;;5065806;28;19924;-77
2023/05/11 00:50:53;;;;;;;;;;;11.80;99.90;;;;;;5052690;28;19983;-77
2023/05/11 00:53:19;;;;;;;;;;;11.90;99.90;;;;;;5062578;28;19924;-78
2023/05/11 00:55:45;;;;;;;;;;;11.90;99.90;;;;;;5064140;28;19931;-78
2023/05/11 00:58:10;;;;;;;;;;;11.90;99.90;;;;;;5094699;28;20009;-77
2023/05/11 01:00:36;;;;;;;;;;;11.90;99.90;;;;;;5078266;28;19928;-77
2023/05/11 01:03:02;;;;;;;;;;;11.80;99.90;;;;;;5048315;28;19924;-77
2023/05/11 01:05:33;;;;;;;;;;;11.80;99.90;;;;;;5053029;28;19979;-78
2023/05/11 01:08:08;;;;;;;;;;;11.80;99.90;;;;;;5056151;28;19967;-78
2023/05/11 01:10:34;;;;;;;;;;;11.90;99.90;;;;;;5098437;28;19928;-78
2023/05/11 01:13:18;;;;;;;;;;;11.90;99.90;;;;;;5080961;28;19924;-78
2023/05/11 01:15:50;;;;;;;;;;;11.90;99.90;;;;;;5084190;28;19935;-78
2023/05/11 01:18:20;;;;;;;;;;;11.90;99.90;;;;;;5064012;28;19932;-78
2023/05/11 01:20:46;;;;;;;;;;;11.90;99.90;;;;;;5080534;28;19931;-78
2023/05/11 01:23:18;;;;;;;;;;;12.00;99.90;;;;;;5065488;28;20413;-78
2023/05/11 01:25:43;;;;;;;;;;;12.00;99.90;;;;;;5064581;28;19932;-77
2023/05/11 01:28:33;;;;;;;;;;;12.00;99.90;;;;;;5064270;28;20439;-77
2023/05/11 01:31:04;;;;;;;;;;;11.90;99.90;;;;;;5092355;28;20342;-77
2023/05/11 01:33:31;;;;;;;;;;;12.00;99.90;;;;;;5052591;28;19928;-78
2023/05/11 01:36:00;;;;;;;;;;;11.90;99.90;;;;;;5065404;28;19935;-77
2023/05/11 01:38:28;;;;;;;;;;;11.90;99.90;;;;;;5080754;28;19931;-78
2023/05/11 01:40:56;;;;;;;;;;;11.90;99.90;;;;;;5081023;28;19928;-77
2023/05/11 01:43:23;;;;;;;;;;;11.90;99.90;;;;;;5063562;28;19931;-77
2023/05/11 01:45:50;;;;;;;;;;;11.90;99.90;;;;;;5064556;28;19928;-78
2023/05/11 01:48:17;;;;;;;;;;;11.90;99.90;;;;;;5056015;28;19991;-78
2023/05/11 01:50:44;;;;;;;;;;;11.90;99.90;;;;;;5070586;28;19924;-77
2023/05/11 01:53:11;;;;;;;;;;;11.90;99.90;;;;;;5065126;28;19978;-78
2023/05/11 01:55:38;;;;;;;;;;;11.90;99.90;;;;;;5066600;28;19924;-78
2023/05/11 01:58:05;;;;;;;;;;;11.90;99.90;;;;;;5076513;28;19932;-78
2023/05/11 02:00:32;;;;;;;;;;;11.90;99.90;;;;;;5060332;28;19925;-78
2023/05/11 02:02:58;;;;;;;;;;;11.90;99.90;;;;;;5074511;28;19924;-78
2023/05/11 02:05:24;;;;;;;;;;;11.90;99.90;;;;;;5094968;28;19928;-78
2023/05/11 02:07:51;;;;;;;;;;;12.00;99.90;;;;;;5066345;28;20347;-78
2023/05/11 02:10:17;;;;;;;;;;;12.00;99.90;;;;;;5078145;28;19931;-78
2023/05/11 02:12:44;;;;;;;;;;;12.00;99.90;;;;;;5079409;28;19924;-78
2023/05/11 02:15:10;;;;;;;;;;;12.00;99.90;;;;;;5089940;28;19924;-78
2023/05/11 02:17:37;;;;;;;;;;;12.00;99.90;;;;;;5075921;28;20432;-78
2023/05/11 02:20:04;;;;;;;;;;;11.90;99.90;;;;;;5078382;28;19928;-78
2023/05/11 02:22:31;;;;;;;;;;;11.90;99.90;;;;;;5062664;28;19923;-77
2023/05/11 02:24:56;;;;;;;;;;;11.90;99.90;;;;;;5086924;28;19923;-78
2023/05/11 02:27:22;;;;;;;;;;;11.90;99.90;;;;;;5088409;28;20014;-78
2023/05/11 02:29:47;;;;;;;;;;;11.90;99.90;;;;;;5077607;28;19931;-78
2023/05/11 02:32:15;;;;;;;;;;;11.90;99.90;;;;;;5106720;28;20033;-78
2023/05/11 02:34:42;;;;;;;;;;;11.90;99.90;;;;;;5068180;28;19930;-78
2023/05/11 02:37:19;;;;;;;;;;;11.80;99.90;;;;;;5103570;28;19969;-78
2023/05/11 02:39:45;;;;;;;;;;;11.80;99.90;;;;;;5086022;28;19927;-77
2023/05/11 02:42:17;;;;;;;;;;;11.80;99.90;;;;;;5071277;28;19924;-78
2023/05/11 02:44:45;;;;;;;;;;;11.90;99.90;;;;;;5079970;28;19923;-77
2023/05/11 02:47:11;;;;;;;;;;;11.80;99.90;;;;;;5098248;28;20295;-78
2023/05/11 02:49:38;;;;;;;;;;;11.90;99.90;;;;;;5075843;28;19924;-78
2023/05/11 02:52:04;;;;;;;;;;;11.80;99.90;;;;;;5073192;28;19946;-77
2023/05/11 02:54:30;;;;;;;;;;;11.90;99.90;;;;;;5086755;28;19923;-78
2023/05/11 02:56:56;;;;;;;;;;;11.90;99.90;;;;;;5087698;28;19924;-78
2023/05/11 02:59:23;;;;;;;;;;;11.80;99.90;;;;;;5069536;28;19924;-78
2023/05/11 03:01:49;;;;;;;;;;;11.80;99.90;;;;;;5083384;28;19923;-78
2023/05/11 03:04:15;;;;;;;;;;;11.80;99.90;;;;;;5076914;28;19928;-78
2023/05/11 03:06:40;;;;;;;;;;;11.80;99.90;;;;;;5070287;28;20011;-78
2023/05/11 03:09:06;;;;;;;;;;;11.80;99.90;;;;;;5054626;28;19924;-78
2023/05/11 03:11:32;;;;;;;;;;;11.80;99.90;;;;;;5069395;28;20379;-78
2023/05/11 03:13:58;;;;;;;;;;;11.80;99.90;;;;;;5045198;28;19951;-78
2023/05/11 03:16:23;;;;;;;;;;;11.80;99.90;;;;;;5052577;28;20082;-78
2023/05/11 03:18:50;;;;;;;;;;;11.80;99.90;;;;;;5046258;28;19924;-78
2023/05/11 03:21:17;;;;;;;;;;;11.80;99.90;;;;;;5043351;28;19924;-78
2023/05/11 03:23:44;;;;;;;;;;;11.70;99.90;;;;;;5061070;28;19930;-78
2023/05/11 03:26:10;;;;;;;;;;;11.70;99.90;;;;;;5077206;28;19995;-78
2023/05/11 03:28:37;;;;;;;;;;;11.70;99.90;;;;;;5074693;28;20361;-78
2023/05/11 03:31:02;;;;;;;;;;;11.70;99.90;;;;;;5060898;28;20199;-78
2023/05/11 03:33:28;;;;;;;;;;;11.70;99.90;;;;;;5059482;28;19935;-78
2023/05/11 03:35:54;;;;;;;;;;;11.70;99.90;;;;;;5045718;28;19929;-78
2023/05/11 03:38:21;;;;;;;;;;;11.70;99.90;;;;;;5074803;28;19962;-78
2023/05/11 03:40:48;;;;;;;;;;;11.70;99.90;;;;;;5059489;28;20385;-78
2023/05/11 03:43:15;;;;;;;;;;;11.70;99.90;;;;;;5093663;28;20432;-77
2023/05/11 03:45:41;;;;;;;;;;;11.70;99.90;;;;;;5063433;28;19924;-78
2023/05/11 03:48:07;;;;;;;;;;;11.70;99.90;;;;;;5061460;28;19963;-77
2023/05/11 03:50:33;;;;;;;;;;;11.70;99.90;;;;;;5057150;28;19927;-78
2023/05/11 03:52:59;;;;;;;;;;;11.70;99.90;;;;;;5075167;28;19928;-78
2023/05/11 03:55:25;;;;;;;;;;;11.70;99.90;;;;;;5078133;28;19975;-78
2023/05/11 03:57:51;;;;;;;;;;;11.70;99.90;;;;;;5096520;28;19955;-78
2023/05/11 04:00:17;;;;;;;;;;;11.70;99.90;;;;;;5074736;28;19925;-77
2023/05/11 04:02:42;;;;;;;;;;;11.70;99.90;;;;;;5059163;28;19931;-78
2023/05/11 04:05:09;;;;;;;;;;;11.80;99.90;;;;;;5076766;28;19975;-77
2023/05/11 04:07:35;;;;;;;;;;;11.70;99.90;;;;;;5075387;28;19949;-78
2023/05/11 04:10:01;;;;;;;;;;;11.70;99.90;;;;;;5078450;28;19924;-78
2023/05/11 04:12:26;;;;;;;;;;;11.70;99.90;;;;;;5060716;28;19934;-78
2023/05/11 04:14:52;;;;;;;;;;;11.80;99.90;;;;;;5076119;28;20480;-78
2023/05/11 04:17:17;;;;;;;;;;;11.70;99.90;;;;;;5058570;28;19950;-78
2023/05/11 04:19:43;;;;;;;;;;;11.70;99.90;;;;;;5054201;28;19938;-78
2023/05/11 04:22:11;;;;;;;;;;;11.70;99.90;;;;;;5085535;28;20448;-78
2023/05/11 04:24:36;;;;;;;;;;;11.70;99.90;;;;;;5056980;28;20009;-78
2023/05/11 04:27:02;;;;;;;;;;;11.70;99.90;;;;;;5105186;28;19924;-78
2023/05/11 04:29:28;;;;;;;;;;;11.70;99.90;;;;;;5070939;28;19946;-78
2023/05/11 04:31:54;;;;;;;;;;;11.70;99.90;;;;;;5102524;28;19931;-78
2023/05/11 04:34:20;;;;;;;;;;;11.70;99.90;;;;;;5050474;28;20428;-78
2023/05/11 04:36:46;;;;;;;;;;;11.70;99.90;;;;;;5072637;28;19940;-78
2023/05/11 04:39:12;;;;;;;;;;;11.70;99.90;;;;;;5068616;28;20024;-78
2023/05/11 04:41:38;;;;;;;;;;;11.80;99.90;;;;;;5069938;28;20301;-78
2023/05/11 04:44:03;;;;;;;;;;;11.80;99.90;;;;;;5068810;28;19987;-78
2023/05/11 04:46:29;;;;;;;;;;;11.80;99.90;;;;;;5049853;28;19997;-78
2023/05/11 04:48:54;;;;;;;;;;;11.80;99.90;;;;;;5102465;28;19990;-78
2023/05/11 04:51:20;;;;;;;;;;;11.80;99.90;;;;;;5054489;28;19959;-78
2023/05/11 04:53:45;;;;;;;;;;;11.70;99.90;;;;;;5063972;28;19927;-78
2023/05/11 04:56:11;;;;;;;;;;;11.80;99.90;;;;;;5102076;28;19924;-78
2023/05/11 04:58:37;;;;;;;;;;;11.80;99.90;;;;;;5063603;28;19931;-78
2023/05/11 05:01:02;;;;;;;;;;;11.80;99.90;;;;;;5085299;28;19973;-78
2023/05/11 05:03:28;;;;;;;;;;;11.80;99.90;;;;;;5072501;28;19945;-78
2023/05/11 05:05:54;;;;;;;;;;;11.80;99.90;;;;;;5077054;28;19928;-78
2023/05/11 05:08:20;;;;;;;;;;;11.80;99.90;;;;;;5047088;28;19956;-78
2023/05/11 05:10:46;;;;;;;;;;;11.80;99.90;;;;;;5050611;28;20085;-78
2023/05/11 05:13:11;;;;;;;;;;;11.90;99.90;;;;;;5084017;28;19924;-78
2023/05/11 05:15:37;;;;;;;;;;;11.90;99.90;;;;;;5098094;28;19924;-78
2023/05/11 05:18:03;;;;;;;;;;;12.00;99.90;;;;;;5095828;28;19935;-78
2023/05/11 05:20:28;;;;;;;;;;;12.00;99.90;;;;;;5064877;28;20442;-78
2023/05/11 05:22:54;;;;;;;;;;;12.10;99.90;;;;;;5047309;28;19931;-78
2023/05/11 05:25:21;;;;;;;;;;;12.10;99.90;;;;;;5066147;28;19924;-78
2023/05/11 05:27:46;;;;;;;;;;;12.10;99.90;;;;;;5073197;28;19935;-78
2023/05/11 05:30:12;;;;;;;;;;;12.20;99.90;;;;;;5050384;28;19979;-78
2023/05/11 05:32:37;;;;;;;;;;;12.20;99.90;;;;;;5109977;28;19924;-78
2023/05/11 05:35:03;;;;;;;;;;;12.20;99.90;;;;;;5087062;28;19923;-79
2023/05/11 05:37:29;;;;;;;;;;;12.20;99.90;;;;;;5063234;28;19977;-78
2023/05/11 05:39:54;;;;;;;;;;;12.30;99.90;;;;;;5076229;28;19924;-78
2023/05/11 05:42:21;;;;;;;;;;;12.30;99.90;;;;;;5086078;28;19946;-78
2023/05/11 05:44:46;;;;;;;;;;;12.30;99.90;;;;;;5088421;28;19927;-78
2023/05/11 05:47:12;;;;;;;;;;;12.30;99.90;;;;;;5071278;28;19963;-78
2023/05/11 05:49:37;;;;;;;;;;;12.20;99.90;;;;;;5082619;28;19928;-78
2023/05/11 05:52:03;;;;;;;;;;;12.20;99.90;;;;;;5122816;27;20010;-78
2023/05/11 05:54:29;;;;;;;;;;;12.20;99.90;;;;;;5083909;28;19924;-77
2023/05/11 05:56:54;;;;;;;;;;;12.30;99.90;;;;;;5072944;28;19931;-76
2023/05/11 05:59:22;;;;;;;;;;;12.30;99.90;;;;;;5092083;28;20003;-75
2023/05/11 06:01:48;;;;;;;;;;;12.30;99.90;;;;;;5083362;28;19924;-75
2023/05/11 06:04:13;;;;;;;;;;;12.20;99.90;;;;;;5071283;28;19924;-73
2023/05/11 06:06:39;;;;;;;;;;;12.20;99.90;;;;;;5087828;28;19928;-73
2023/05/11 06:09:05;;;;;;;;;;;12.20;99.90;;;;;;5104818;28;19987;-73
2023/05/11 06:11:30;;;;;;;;;;;12.20;99.90;;;;;;5069494;28;19924;-73
2023/05/11 06:13:56;;;;;;;;;;;12.20;99.90;;;;;;5093631;28;19924;-73
2023/05/11 06:16:24;;;;;;;;;;;12.20;99.90;;;;;;5079195;28;20336;-73
2023/05/11 06:18:49;;;;;;;;;;;12.20;99.90;;;;;;5102883;28;19924;-73
2023/05/11 06:21:15;;;;;;;;;;;12.10;99.90;;;;;;5079722;28;19970;-73
2023/05/11 06:23:41;;;;;;;;;;;12.10;99.90;;;;;;5070125;28;20018;-73
2023/05/11 06:26:06;;;;;;;;;;;12.10;99.90;;;;;;5104320;28;20023;-72
2023/05/11 06:28:32;;;;;;;;;;;12.10;99.90;;;;;;5079519;28;19931;-73
2023/05/11 06:30:58;;;;;;;;;;;12.10;99.90;;;;;;5088005;28;19945;-73
2023/05/11 06:33:24;;;;;;;;;;;12.10;99.90;;;;;;5053222;28;19924;-73
2023/05/11 06:35:49;;;;;;;;;;;12.00;99.90;;;;;;5071681;28;19924;-73
2023/05/11 06:38:15;;;;;;;;;;;12.00;99.90;;;;;;5086799;28;19923;-73
2023/05/11 06:40:40;;;;;;;;;;;12.00;99.90;;;;;;5087496;28;19991;-73
2023/05/11 06:43:06;;;;;;;;;;;12.00;99.90;;;;;;5072016;28;19924;-72
2023/05/11 06:45:32;;;;;;;;;;;12.00;99.90;;;;;;5063062;28;19983;-72
2023/05/11 06:47:58;;;;;;;;;;;12.00;99.90;;;;;;5064149;28;20376;-73
2023/05/11 06:50:23;;;;;;;;;;;12.00;99.90;;;;;;5076685;28;20418;-73
2023/05/11 06:52:49;;;;;;;;;;;12.00;99.90;;;;;;5071240;28;20379;-72
2023/05/11 06:55:15;;;;;;;;;;;12.00;99.90;;;;;;5083876;28;20511;-72
2023/05/11 06:57:40;;;;;;;;;;;12.00;99.90;;;;;;5067800;28;20005;-72
2023/05/11 07:00:07;;;;;;;;;;;12.00;99.90;;;;;;5097611;28;20447;-72
2023/05/11 07:02:32;;;;;;;;;;;12.00;99.90;;;;;;5078492;28;20383;-72
2023/05/11 07:04:58;;;;;;;;;;;12.00;99.90;;;;;;5086776;28;19924;-72
2023/05/11 07:07:23;;;;;;;;;;;12.00;99.90;;;;;;5072013;28;19928;-72
2023/05/11 07:09:49;;;;;;;;;;;12.00;99.90;;;;;;5087559;28;19924;-72
2023/05/11 07:12:14;;;;;;;;;;;12.00;99.90;;;;;;5082342;28;19923;-72
2023/05/11 07:14:40;;;;;;;;;;;12.00;99.90;;;;;;5114313;27;19939;-72
2023/05/11 07:17:06;;;;;;;;;;;12.00;99.90;;;;;;5094255;28;19983;-72
2023/05/11 07:19:31;;;;;;;;;;;12.00;99.90;;;;;;5078853;28;19932;-72
2023/05/11 07:21:57;;;;;;;;;;;12.10;99.90;;;;;;5095440;28;19924;-72
2023/05/11 07:24:22;;;;;;;;;;;12.00;99.90;;;;;;5080034;28;20390;-72
2023/05/11 07:26:49;;;;;;;;;;;12.10;99.90;;;;;;5092831;28;21289;-72
2023/05/11 07:29:15;;;;;;;;;;;12.10;99.90;;;;;;5050319;28;19930;-72
2023/05/11 07:31:41;;;;;;;;;;;12.10;99.90;;;;;;5093663;28;19932;-72
2023/05/11 07:34:07;;;;;;;;;;;12.10;99.90;;;;;;5074911;28;19959;-72
2023/05/11 07:36:33;;;;;;;;;;;12.20;99.90;;;;;;5080715;28;19978;-72
2023/05/11 07:39:00;;;;;;;;;;;12.20;99.90;;;;;;5096933;28;19924;-73
2023/05/11 07:41:26;;;;;;;;;;;12.20;99.90;;;;;;5092571;28;19991;-73
2023/05/11 07:43:52;;;;;;;;;;;12.20;99.90;;;;;;5056086;28;19924;-73
2023/05/11 07:46:17;;;;;;;;;;;12.20;99.90;;;;;;5068923;28;20010;-73
2023/05/11 07:48:43;;;;;;;;;;;12.20;99.90;;;;;;5097672;28;19924;-73
2023/05/11 07:51:09;;;;;;;;;;;12.20;99.90;;;;;;5109633;28;19924;-73
2023/05/11 07:53:35;;;;;;;;;;;12.20;99.90;;;;;;5088764;28;20299;-74
2023/05/11 07:56:02;;;;;;;;;;;12.20;99.90;;;;;;5102547;28;19924;-73
2023/05/11 07:58:28;;;;;;;;;;;12.30;99.90;;;;;;5086315;28;19941;-72
2023/05/11 08:00:53;;;;;;;;;;;12.20;99.90;;;;;;5079563;28;19932;-72
2023/05/11 08:03:19;;;;;;;;;;;12.30;99.90;;;;;;5044229;28;19931;-71
2023/05/11 08:05:45;;;;;;;;;;;12.40;99.90;;;;;;5115184;27;19935;-72
2023/05/11 08:08:10;;;;;;;;;;;12.50;99.90;;;;;;5050981;28;19960;-72
2023/05/11 08:10:36;;;;;;;;;;;12.50;99.90;;;;;;5067313;28;19925;-73
2023/05/11 08:13:01;;;;;;;;;;;12.60;99.90;;;;;;5045285;28;20576;-73
2023/05/11 08:15:27;;;;;;;;;;;12.60;99.90;;;;;;5109550;28;19950;-73
2023/05/11 08:17:53;;;;;;;;;;;12.70;99.90;;;;;;5106255;28;19991;-73
2023/05/11 08:20:18;;;;;;;;;;;12.80;99.90;;;;;;5047451;28;19929;-74
2023/05/11 08:22:45;;;;;;;;;;;12.90;99.90;;;;;;5114095;28;19934;-73
2023/05/11 08:25:10;;;;;;;;;;;12.90;99.90;;;;;;5088044;28;19924;-73
2023/05/11 08:27:36;;;;;;;;;;;13.00;99.90;;;;;;5110255;27;19924;-74
2023/05/11 08:30:02;;;;;;;;;;;13.20;99.90;;;;;;5076524;28;19935;-74
2023/05/11 08:32:28;;;;;;;;;;;13.40;99.90;;;;;;5062095;28;19958;-78
2023/05/11 08:34:53;;;;;;;;;;;13.50;99.90;;;;;;5072414;28;20465;-78
2023/05/11 08:37:19;;;;;;;;;;;13.60;99.90;;;;;;5043494;28;20662;-78
2023/05/11 08:39:45;;;;;;;;;;;13.60;99.90;;;;;;5084069;28;19993;-79
2023/05/11 08:42:13;;;;;;;;;;;13.80;99.90;;;;;;5069092;28;19947;-78
2023/05/11 08:44:41;;;;;;;;;;;13.90;99.90;;;;;;5059221;28;19924;-79
2023/05/11 08:47:06;;;;;;;;;;;14.00;99.90;;;;;;5055480;28;19925;-79
2023/05/11 08:49:33;;;;;;;;;;;14.20;99.90;;;;;;5064586;28;19924;-79
2023/05/11 08:52:02;;;;;;;;;;;14.30;99.90;;;;;;5051967;28;20300;-79
2023/05/11 08:54:28;;;;;;;;;;;14.40;99.90;;;;;;5062307;28;19942;-78
2023/05/11 08:56:53;;;;;;;;;;;14.50;99.90;;;;;;5098277;28;20149;-79
2023/05/11 08:59:19;;;;;;;;;;;14.60;99.90;;;;;;5064747;28;20007;-78
2023/05/11 09:01:45;;;;;;;;;;;14.60;99.90;;;;;;5083338;28;19932;-78
2023/05/11 09:04:11;;;;;;;;;;;14.70;99.90;;;;;;5104752;28;19946;-78
2023/05/11 09:06:37;;;;;;;;;;;14.80;99.90;;;;;;5066505;28;19933;-78
2023/05/11 09:09:02;;;;;;;;;;;14.80;99.90;;;;;;5064958;28;20023;-78
2023/05/11 09:11:29;;;;;;;;;;;14.90;99.90;;;;;;5101857;28;19924;-78
2023/05/11 09:13:55;;;;;;;;;;;15.10;99.90;;;;;;5070517;28;19928;-78
2023/05/11 09:16:20;;;;;;;;;;;15.40;99.90;;;;;;5052949;28;20057;-78
2023/05/11 09:18:49;;;;;;;;;;;15.50;99.90;;;;;;5102951;27;19959;-78
2023/05/11 09:21:15;;;;;;;;;;;15.60;99.90;;;;;;5062790;28;19935;-78
2023/05/11 09:23:41;;;;;;;;;;;15.80;99.90;;;;;;5072033;28;19925;-78
2023/05/11 09:26:18;;;;;;;;;;;16.00;99.90;;;;;;5050080;28;19932;-78
2023/05/11 09:28:51;;;;;;;;;;;16.30;99.90;;;;;;5071705;28;20057;-78
2023/05/11 09:31:36;;;;;;;;;;;16.80;99.90;;;;;;5100701;28;19932;-78
2023/05/11 09:34:14;;;;;;;;;;;17.00;99.90;;;;;;5068944;28;19940;-78
2023/05/11 09:36:40;;;;;;;;;;;17.00;99.90;;;;;;5065059;28;19954;-78
2023/05/11 09:39:05;;;;;;;;;;;17.10;99.90;;;;;;5064864;28;19995;-78
2023/05/11 09:41:31;;;;;;;;;;;17.10;99.90;;;;;;5037193;28;19964;-78
2023/05/11 09:44:08;;;;;;;;;;;17.10;99.90;;;;;;5056167;28;19925;-78
2023/05/11 09:46:35;;;;;;;;;;;17.20;99.90;;;;;;5055473;28;19936;-78
2023/05/11 09:49:01;;;;;;;;;;;17.10;99.90;;;;;;5074807;28;19946;-78
2023/05/11 09:51:31;;;;;;;;;;;17.30;99.90;;;;;;5054541;28;20758;-78
2023/05/11 09:53:57;;;;;;;;;;;17.30;99.90;;;;;;5067294;28;19938;-78
2023/05/11 09:56:22;;;;;;;;;;;17.40;99.90;;;;;;5055461;28;20019;-76
2023/05/11 09:58:53;;;;;;;;;;;17.50;99.90;;;;;;5068296;28;20027;-76
2023/05/11 10:01:29;;;;;;;;;;;17.60;99.90;;;;;;5065087;28;19925;-76
2023/05/11 10:03:55;;;;;;;;;;;17.90;99.90;;;;;;5070807;28;19933;-76
2023/05/11 10:06:20;;;;;;;;;;;18.00;99.90;;;;;;5072763;28;19932;-77
2023/05/11 10:08:47;;;;;;;;;;;18.00;99.90;;;;;;5062090;28;20035;-76
2023/05/11 10:11:13;;;;;;;;;;;17.80;99.90;;;;;;5054610;28;20015;-77
2023/05/11 10:13:38;;;;;;;;;;;17.60;99.90;;;;;;5061077;28;20017;-76
2023/05/11 10:16:05;;;;;;;;;;;17.30;99.90;;;;;;5067312;28;19961;-77
2023/05/11 10:18:31;;;;;;;;;;;17.20;99.90;;;;;;5053651;28;19924;-77
2023/05/11 10:20:57;;;;;;;;;;;17.00;99.90;;;;;;5054812;28;19982;-77
2023/05/11 10:23:24;;;;;;;;;;;17.00;99.90;;;;;;5065942;28;19928;-77
2023/05/11 10:25:51;;;;;;;;;;;16.90;99.90;;;;;;5035468;28;20002;-77
2023/05/11 10:28:17;;;;;;;;;;;17.00;99.90;;;;;;5066463;28;19992;-77
2023/05/11 10:30:43;;;;;;;;;;;17.20;99.90;;;;;;5056075;28;19963;-76
2023/05/11 10:33:09;;;;;;;;;;;17.30;99.90;;;;;;5061533;28;19935;-77
2023/05/11 10:35:36;;;;;;;;;;;17.20;99.90;;;;;;5088217;28;19924;-76
2023/05/11 10:38:02;;;;;;;;;;;17.10;99.90;;;;;;5126435;27;19943;-77
2023/05/11 10:40:28;;;;;;;;;;;17.00;99.90;;;;;;5111340;28;19929;-77
2023/05/11 10:42:55;;;;;;;;;;;16.90;99.90;;;;;;5075528;28;20492;-77
2023/05/11 10:45:33;;;;;;;;;;;16.90;99.90;;;;;;5059862;28;20086;-78
2023/05/11 10:47:58;;;;;;;;;;;16.70;99.90;;;;;;5062632;28;19925;-77
2023/05/11 10:50:24;;;;;;;;;;;16.70;99.90;;;;;;5091765;28;19928;-77
2023/05/11 10:52:56;;;;;;;;;;;16.60;99.90;;;;;;5089783;28;19974;-77
2023/05/11 10:55:30;;;;;;;;;;;16.50;99.90;;;;;;5072511;28;19962;-77
2023/05/11 10:58:06;;;;;;;;;;;16.50;99.90;;;;;;5072904;28;19924;-77
2023/05/11 11:00:34;;;;;;;;;;;16.50;99.90;;;;;;5072645;28;20410;-77
2023/05/11 11:03:13;;;;;;;;;;;16.50;99.90;;;;;;5077197;28;19959;-77
2023/05/11 11:05:39;;;;;;;;;;;16.50;99.90;;;;;;5078549;28;19935;-80
2023/05/11 11:08:07;;;;;;;;;;;16.50;99.90;;;;;;5091839;28;19928;-80
2023/05/11 11:10:33;;;;;;;;;;;16.30;99.90;;;;;;5077287;28;20022;-81
2023/05/11 11:13:06;;;;;;;;;;;16.20;99.90;;;;;;5059397;28;21380;-80
2023/05/11 11:15:50;;;;;;;;;;;16.10;99.90;;;;;;5057396;28;20341;-80
2023/05/11 11:18:18;;;;;;;;;;;16.10;99.90;;;;;;5059746;28;19931;-80
2023/05/11 11:20:51;;;;;;;;;;;16.00;99.90;;;;;;5087391;28;19924;-80
2023/05/11 11:23:37;;;;;;;;;;;15.90;99.90;;;;;;5087322;28;19928;-80
2023/05/11 11:26:03;;;;;;;;;;;15.90;99.90;;;;;;5049335;28;19939;-80
2023/05/11 11:29:01;;;;;;;;;;;15.80;99.90;;;;;;5088180;28;19924;-81
2023/05/11 11:31:27;;;;;;;;;;;15.80;99.90;;;;;;5043451;28;19964;-80
2023/05/11 11:33:57;;;;;;;;;;;15.90;99.90;;;;;;5072579;28;19924;-80
2023/05/11 11:36:41;;;;;;;;;;;16.00;99.90;;;;;;5059761;28;19928;-81
2023/05/11 11:39:07;;;;;;;;;;;16.10;99.90;;;;;;5087794;28;19928;-81
2023/05/11 11:41:34;;;;;;;;;;;16.20;99.90;;;;;;5089809;28;19932;-80
2023/05/11 11:43:59;;;;;;;;;;;16.30;99.90;;;;;;5043502;28;19970;-80
2023/05/11 11:46:26;;;;;;;;;;;16.40;99.90;;;;;;5057936;28;19932;-80
2023/05/11 11:49:04;;;;;;;;;;;16.50;99.90;;;;;;5065898;28;19935;-80
2023/05/11 11:51:32;;;;;;;;;;;16.60;99.90;;;;;;5066775;28;19924;-80
2023/05/11 11:53:58;;;;;;;;;;;16.70;99.90;;;;;;5063929;28;19982;-81
2023/05/11 11:56:23;;;;;;;;;;;16.80;99.90;;;;;;5076010;28;19924;-80
2023/05/11 11:58:52;;;;;;;;;;;16.90;99.90;;;;;;5061769;28;19951;-81
2023/05/11 12:01:19;;;;;;;;;;;17.00;99.90;;;;;;5057677;28;20015;-80
2023/05/11 12:03:45;;;;;;;;;;;17.10;99.90;;;;;;5073743;28;19939;-80
2023/05/11 12:06:12;;;;;;;;;;;17.20;99.90;;;;;;5078106;28;19959;-80
2023/05/11 12:08:38;;;;;;;;;;;17.30;99.90;;;;;;5058822;28;19967;-80
2023/05/11 12:11:04;;;;;;;;;;;17.40;99.90;;;;;;5086035;28;20334;-81
2023/05/11 12:13:30;;;;;;;;;;;17.50;99.90;;;;;;5099441;28;19924;-80
2023/05/11 12:16:12;;;;;;;;;;;17.50;99.90;;;;;;5058137;28;19925;-80
2023/05/11 12:18:38;;;;;;;;;;;17.60;99.90;;;;;;5057400;28;20478;-80
2023/05/11 12:21:03;;;;;;;;;;;17.70;99.90;;;;;;5077579;28;19931;-80
2023/05/11 12:23:29;;;;;;;;;;;17.60;99.90;;;;;;5103304;28;19946;-80
2023/05/11 12:26:01;;;;;;;;;;;17.70;99.90;;;;;;5088100;28;19929;-80
2023/05/11 12:28:27;;;;;;;;;;;17.70;99.90;;;;;;5089825;28;20394;-80
2023/05/11 12:30:56;;;;;;;;;;;17.80;99.90;;;;;;5071735;28;19992;-80
2023/05/11 12:33:22;;;;;;;;;;;17.90;99.90;;;;;;5056066;28;19936;-81
2023/05/11 12:35:54;;;;;;;;;;;17.90;99.90;;;;;;5090332;28;19924;-80
2023/05/11 12:38:20;;;;;;;;;;;18.00;99.90;;;;;;5065403;28;19932;-80
2023/05/11 12:40:49;;;;;;;;;;;18.10;99.90;;;;;;5097134;28;19939;-80
2023/05/11 12:43:16;;;;;;;;;;;18.10;99.90;;;;;;5074226;28;19932;-80
2023/05/11 12:45:41;;;;;;;;;;;18.00;99.90;;;;;;5072396;28;21334;-80
2023/05/11 12:48:08;;;;;;;;;;;18.10;99.90;;;;;;5081180;28;20349;-79
2023/05/11 12:50:38;;;;;;;;;;;18.20;99.90;;;;;;5071116;28;20406;-79
2023/05/11 12:53:13;;;;;;;;;;;18.10;99.90;;;;;;5057950;28;19955;-80
2023/05/11 12:55:40;;;;;;;;;;;18.20;99.90;;;;;;5055166;28;19959;-80
2023/05/11 12:58:06;;;;;;;;;;;18.10;99.90;;;;;;5054332;28;19929;-81
2023/05/11 13:00:32;;;;;;;;;;;18.20;99.90;;;;;;5060172;28;19924;-80
2023/05/11 13:02:58;;;;;;;;;;;18.20;99.90;;;;;;5062678;28;19924;-80
2023/05/11 13:05:25;;;;;;;;;;;18.30;99.90;;;;;;5070607;28;19936;-80
2023/05/11 13:08:01;;;;;;;;;;;18.30;99.90;;;;;;5093402;28;19924;-80
2023/05/11 13:10:27;;;;;;;;;;;18.30;99.90;;;;;;5081143;28;19990;-80
2023/05/11 13:12:53;;;;;;;;;;;18.30;99.90;;;;;;5068089;28;19924;-80
2023/05/11 13:15:20;;;;;;;;;;;18.30;99.90;;;;;;5066541;28;19925;-80
2023/05/11 13:17:46;;;;;;;;;;;18.40;99.90;;;;;;5066303;28;20002;-80
2023/05/11 13:20:18;;;;;;;;;;;18.30;99.90;;;;;;5073560;28;19924;-80
2023/05/11 13:22:44;;;;;;;;;;;18.30;99.90;;;;;;5111191;28;19929;-80
2023/05/11 13:25:10;;;;;;;;;;;18.20;99.90;;;;;;5096493;28;19939;-80
2023/05/11 13:27:36;;;;;;;;;;;18.20;99.90;;;;;;5102396;28;19925;-80
2023/05/11 13:30:03;;;;;;;;;;;18.30;99.90;;;;;;5059687;28;19924;-80
2023/05/11 13:32:29;;;;;;;;;;;18.30;99.90;;;;;;5058647;28;19929;-80
2023/05/11 13:34:54;;;;;;;;;;;18.30;99.90;;;;;;5091038;28;19928;-80
2023/05/11 13:37:20;;;;;;;;;;;18.20;99.90;;;;;;5090666;28;19928;-80
2023/05/11 13:39:45;;;;;;;;;;;18.20;99.90;;;;;;5038531;28;19996;-80
2023/05/11 13:42:11;;;;;;;;;;;18.10;99.90;;;;;;5084386;28;19970;-80
2023/05/11 13:44:37;;;;;;;;;;;18.10;99.90;;;;;;5074518;28;19928;-81
2023/05/11 13:47:02;;;;;;;;;;;18.20;99.90;;;;;;5077406;28;19928;-80
2023/05/11 13:49:28;;;;;;;;;;;18.20;99.90;;;;;;5040736;28;19924;-81
2023/05/11 13:51:54;;;;;;;;;;;18.30;99.90;;;;;;5077853;28;19925;-80
2023/05/11 13:54:20;;;;;;;;;;;18.30;99.90;;;;;;5055598;28;19986;-81
2023/05/11 13:56:46;;;;;;;;;;;18.20;99.90;;;;;;5079157;28;19931;-80
2023/05/11 13:59:12;;;;;;;;;;;18.20;99.90;;;;;;5059729;28;19924;-80
2023/05/11 14:01:37;;;;;;;;;;;18.10;99.90;;;;;;5080546;28;19924;-80
2023/05/11 14:04:03;;;;;;;;;;;18.10;99.90;;;;;;5058477;28;20341;-80
2023/05/11 14:06:32;;;;;;;;;;;18.00;99.90;;;;;;5062170;28;19930;-77
2023/05/11 14:08:57;;;;;;;;;;;18.00;99.90;;;;;;5092985;28;19971;-76
2023/05/11 14:11:23;;;;;;;;;;;17.90;99.90;;;;;;5101639;28;20387;-76
2023/05/11 14:13:49;;;;;;;;;;;17.80;99.90;;;;;;5075720;28;19928;-76
2023/05/11 14:16:14;;;;;;;;;;;17.70;99.90;;;;;;5082474;28;19932;-76